Time;durP1;ratioP1;P1;durP2;ratioP2;P2;SDS_P1;SDS_P2;PMS_P1;PMS_P2;Temp;Humidity;BMP_temperature;BMP_pressure;BME280_temperature;BME280_humidity;BME280_pressure;Samples;Min_cycle;Max_cycle;Signal;HPM_P1;HPM_P2
2022/03/18 00:01:24;;;;;;;14.37;7.10;;;3.90;99.90;;;;;;5175842;27;20204;-51
2022/03/18 00:03:52;;;;;;;17.80;7.20;;;3.90;99.90;;;;;;5175890;27;20230;-51
2022/03/18 00:06:21;;;;;;;14.40;7.67;;;3.90;99.90;;;;;;5176460;27;20228;-50
2022/03/18 00:08:49;;;;;;;17.23;8.57;;;3.80;99.90;;;;;;5176627;27;20604;-51
2022/03/18 00:11:17;;;;;;;16.87;8.13;;;3.80;99.90;;;;;;5176630;27;20205;-51
2022/03/18 00:13:46;;;;;;;15.37;8.27;;;3.80;99.90;;;;;;5175385;27;20549;-51
2022/03/18 00:16:14;;;;;;;15.13;8.97;;;3.80;99.90;;;;;;5176215;27;20219;-51
2022/03/18 00:18:42;;;;;;;20.73;10.53;;;3.80;99.90;;;;;;5176409;27;20218;-51
2022/03/18 00:21:11;;;;;;;22.80;9.03;;;3.80;99.90;;;;;;5176588;27;20204;-51
2022/03/18 00:23:39;;;;;;;16.33;8.47;;;3.80;99.90;;;;;;5175529;27;20213;-51
2022/03/18 00:26:08;;;;;;;20.80;9.27;;;3.80;99.90;;;;;;5175694;27;20699;-51
2022/03/18 00:28:39;;;;;;;16.73;8.67;;;3.70;99.90;;;;;;5175703;27;20207;-51
2022/03/18 00:31:08;;;;;;;18.50;8.07;;;3.70;99.90;;;;;;5176083;27;20213;-51
2022/03/18 00:33:37;;;;;;;19.50;9.33;;;3.70;99.90;;;;;;5175382;27;20206;-51
2022/03/18 00:36:06;;;;;;;21.53;10.03;;;3.70;99.90;;;;;;5176046;27;20283;-51
2022/03/18 00:38:34;;;;;;;23.47;10.53;;;3.60;99.90;;;;;;5175641;27;20615;-51
2022/03/18 00:41:02;;;;;;;19.93;8.40;;;3.60;99.90;;;;;;5176062;27;20217;-52
2022/03/18 00:43:30;;;;;;;14.07;7.73;;;3.60;99.90;;;;;;5175162;27;20238;-51
2022/03/18 00:45:58;;;;;;;12.33;6.77;;;3.60;99.90;;;;;;5175590;27;20230;-51
2022/03/18 00:53:59;;;;;;;19.03;7.60;;;3.50;99.90;;;;;;5174940;27;20667;-51
2022/03/18 00:56:28;;;;;;;16.53;8.37;;;3.50;99.90;;;;;;5175130;27;20257;-51
2022/03/18 00:58:56;;;;;;;14.20;8.43;;;3.50;99.90;;;;;;5162373;27;20233;-51
2022/03/18 01:01:26;;;;;;;20.10;8.10;;;3.50;99.90;;;;;;5153128;27;20254;-51
2022/03/18 01:03:57;;;;;;;16.87;8.23;;;3.50;99.90;;;;;;5154104;27;20202;-51
2022/03/18 01:06:25;;;;;;;16.93;8.90;;;3.50;99.90;;;;;;5154019;27;20222;-51
2022/03/18 01:08:53;;;;;;;19.87;8.80;;;3.60;99.90;;;;;;5164360;27;20198;-51
2022/03/18 01:11:21;;;;;;;16.53;8.63;;;3.60;99.90;;;;;;5174573;27;20206;-51
2022/03/18 01:13:49;;;;;;;16.30;8.53;;;3.60;99.90;;;;;;5174669;27;20306;-51
2022/03/18 01:16:18;;;;;;;15.47;7.90;;;3.70;99.90;;;;;;5174703;27;20269;-52
2022/03/18 01:18:46;;;;;;;16.33;8.00;;;3.60;99.90;;;;;;5174959;27;20298;-51
2022/03/18 01:21:15;;;;;;;15.47;8.00;;;3.60;99.90;;;;;;5174912;27;20199;-51
2022/03/18 01:23:43;;;;;;;12.23;8.00;;;3.60;99.90;;;;;;5174598;27;20202;-51
2022/03/18 01:26:12;;;;;;;14.43;8.20;;;3.60;99.90;;;;;;5175044;27;20281;-52
2022/03/18 01:28:40;;;;;;;14.83;8.07;;;3.70;99.90;;;;;;5174131;27;20214;-51
2022/03/18 01:31:08;;;;;;;15.50;8.83;;;3.60;99.90;;;;;;5174424;27;20207;-51
2022/03/18 01:33:37;;;;;;;22.73;8.97;;;3.60;99.90;;;;;;5173422;27;20231;-51
2022/03/18 01:36:06;;;;;;;19.93;10.97;;;3.60;99.90;;;;;;5174251;27;20225;-51
2022/03/18 01:38:35;;;;;;;21.43;11.93;;;3.60;99.90;;;;;;5174564;27;20209;-51
2022/03/18 01:41:04;;;;;;;21.10;10.33;;;3.60;99.90;;;;;;5174597;27;20237;-51
2022/03/18 01:43:38;;;;;;;17.33;9.17;;;3.60;99.90;;;;;;5172707;27;20672;-51
2022/03/18 01:46:06;;;;;;;16.73;9.00;;;3.60;99.90;;;;;;5174059;27;20272;-51
2022/03/18 01:48:34;;;;;;;19.30;9.20;;;3.60;99.90;;;;;;5174399;27;20208;-51
2022/03/18 01:51:04;;;;;;;15.37;8.50;;;3.60;99.90;;;;;;5173996;27;20201;-51
2022/03/18 01:53:34;;;;;;;33.17;9.40;;;3.60;99.90;;;;;;5174011;27;20203;-51
2022/03/18 01:56:04;;;;;;;17.67;9.47;;;3.60;99.90;;;;;;5174138;27;20271;-51
2022/03/18 01:58:32;;;;;;;15.50;8.40;;;3.60;99.90;;;;;;5163044;27;20251;-51
2022/03/18 02:01:00;;;;;;;18.17;9.83;;;3.60;99.90;;;;;;5153087;27;20235;-51
2022/03/18 02:03:29;;;;;;;16.73;9.10;;;3.60;99.90;;;;;;5152925;27;20306;-51
2022/03/18 02:05:58;;;;;;;20.13;9.30;;;3.60;99.90;;;;;;5153249;27;20230;-51
2022/03/18 02:08:26;;;;;;;20.87;9.40;;;3.60;99.90;;;;;;5159232;27;20681;-51
2022/03/18 02:10:54;;;;;;;20.47;9.90;;;3.60;99.90;;;;;;5174225;27;20246;-51
2022/03/18 02:13:24;;;;;;;19.70;10.23;;;3.60;99.90;;;;;;5173333;27;20202;-51
2022/03/18 02:15:52;;;;;;;21.43;10.43;;;3.70;99.90;;;;;;5173934;27;20219;-51
2022/03/18 02:18:20;;;;;;;22.40;10.60;;;3.70;99.90;;;;;;5174146;27;20264;-51
2022/03/18 02:20:48;;;;;;;19.23;10.67;;;3.80;99.90;;;;;;5174061;27;20252;-51
2022/03/18 02:23:18;;;;;;;20.67;11.03;;;3.90;99.90;;;;;;5172557;27;20247;-51
2022/03/18 02:25:48;;;;;;;20.23;10.80;;;3.90;99.90;;;;;;5173738;27;20727;-51
2022/03/18 02:28:16;;;;;;;19.77;11.47;;;3.80;99.90;;;;;;5173448;27;20268;-51
2022/03/18 02:30:44;;;;;;;19.83;11.33;;;3.80;99.90;;;;;;5173711;27;20201;-51
2022/03/18 02:33:12;;;;;;;19.33;11.20;;;3.80;99.90;;;;;;5173470;27;20205;-51
2022/03/18 02:35:40;;;;;;;23.20;10.33;;;3.80;99.90;;;;;;5152838;27;20199;-53
2022/03/18 02:38:08;;;;;;;22.73;10.80;;;3.80;99.90;;;;;;5152799;27;20577;-51
2022/03/18 02:40:38;;;;;;;29.73;11.53;;;3.90;99.90;;;;;;5152243;27;20993;-51
2022/03/18 02:43:06;;;;;;;23.40;11.07;;;3.90;99.90;;;;;;5150947;27;20243;-51
2022/03/18 02:45:34;;;;;;;21.53;10.70;;;3.90;99.90;;;;;;5152261;27;20800;-52
2022/03/18 02:48:03;;;;;;;17.50;10.83;;;3.80;99.90;;;;;;5169199;27;20210;-51
2022/03/18 02:50:31;;;;;;;20.03;10.20;;;3.80;99.90;;;;;;5173552;27;20200;-51
2022/03/18 02:52:59;;;;;;;18.20;9.27;;;3.80;99.90;;;;;;5173006;27;20617;-51
2022/03/18 02:55:27;;;;;;;15.07;8.40;;;3.80;99.90;;;;;;5173290;27;20206;-51
2022/03/18 02:57:57;;;;;;;15.87;8.77;;;3.80;99.90;;;;;;5173214;27;20208;-51
2022/03/18 03:00:25;;;;;;;11.87;7.10;;;3.90;99.90;;;;;;5173305;27;20219;-51
2022/03/18 03:02:53;;;;;;;13.47;7.03;;;3.90;99.90;;;;;;5172706;27;20203;-51
2022/03/18 03:08:07;;;;;;;12.50;6.60;;;3.90;99.90;;;;;;5169577;27;20211;-51
2022/03/18 03:10:36;;;;;;;14.13;6.73;;;3.90;99.90;;;;;;5152716;27;20204;-51
2022/03/18 03:13:10;;;;;;;16.53;6.27;;;3.90;99.90;;;;;;5151895;27;20204;-51
2022/03/18 03:15:39;;;;;;;14.87;6.70;;;3.90;99.90;;;;;;5152437;27;20187;-51
2022/03/18 03:18:08;;;;;;;12.43;6.43;;;3.90;99.90;;;;;;5152731;27;20750;-50
2022/03/18 03:20:36;;;;;;;13.60;6.60;;;3.90;99.90;;;;;;5152101;27;20204;-51
2022/03/18 03:23:04;;;;;;;13.47;6.30;;;3.90;99.90;;;;;;5153181;27;20670;-51
2022/03/18 03:25:32;;;;;;;14.63;6.67;;;3.90;99.90;;;;;;5172896;27;20205;-51
2022/03/18 03:28:00;;;;;;;14.77;6.00;;;3.90;99.90;;;;;;5172934;27;20591;-51
2022/03/18 03:30:30;;;;;;;14.13;6.27;;;4.00;99.90;;;;;;5172442;27;20209;-51
2022/03/18 03:32:58;;;;;;;15.60;7.03;;;4.10;99.90;;;;;;5172605;27;20585;-50
2022/03/18 03:35:26;;;;;;;12.57;6.33;;;4.00;99.90;;;;;;5175917;27;20203;-51
2022/03/18 03:37:54;;;;;;;13.63;6.40;;;4.10;99.90;;;;;;5177074;27;20197;-51
2022/03/18 03:40:24;;;;;;;19.00;6.23;;;4.10;99.90;;;;;;5176795;27;20235;-51
2022/03/18 03:42:53;;;;;;;14.63;6.50;;;4.10;99.90;;;;;;5175074;27;20266;-51
2022/03/18 03:45:21;;;;;;;15.83;6.70;;;4.00;99.90;;;;;;5176686;27;20737;-51
2022/03/18 03:47:51;;;;;;;14.83;6.03;;;4.00;99.90;;;;;;5176863;27;20225;-51
2022/03/18 03:50:19;;;;;;;16.03;6.60;;;4.10;99.90;;;;;;5176479;27;20583;-51
2022/03/18 03:52:47;;;;;;;16.90;6.57;;;4.00;99.90;;;;;;5176240;27;20203;-51
2022/03/18 03:55:15;;;;;;;15.37;6.30;;;4.10;99.90;;;;;;5176547;27;20664;-51
2022/03/18 03:57:43;;;;;;;13.23;7.10;;;4.00;99.90;;;;;;5176493;27;20281;-51
2022/03/18 04:00:13;;;;;;;13.90;6.67;;;4.00;99.90;;;;;;5163417;27;20671;-51
2022/03/18 04:02:43;;;;;;;10.97;6.70;;;4.00;99.90;;;;;;5155053;27;20609;-51
2022/03/18 04:05:13;;;;;;;16.20;7.40;;;4.00;99.90;;;;;;5155400;27;20198;-51
2022/03/18 04:07:44;;;;;;;15.00;6.97;;;4.00;99.90;;;;;;5155660;27;20230;-51
2022/03/18 04:10:13;;;;;;;19.37;7.50;;;4.00;99.90;;;;;;5155430;27;20666;-51
2022/03/18 04:12:42;;;;;;;15.73;7.47;;;4.10;99.90;;;;;;5155096;27;20697;-51
2022/03/18 04:15:11;;;;;;;13.80;6.70;;;4.10;99.90;;;;;;5155583;27;20244;-51
2022/03/18 04:17:40;;;;;;;23.67;7.67;;;4.10;99.90;;;;;;5155437;27;20221;-51
2022/03/18 04:20:10;;;;;;;17.63;7.97;;;4.00;99.90;;;;;;5155161;27;20199;-51
2022/03/18 04:22:40;;;;;;;20.37;7.83;;;4.00;99.90;;;;;;5155154;27;20259;-51
2022/03/18 04:25:10;;;;;;;17.13;7.30;;;4.00;99.90;;;;;;5174570;27;20200;-51
2022/03/18 04:27:39;;;;;;;19.43;7.80;;;4.00;99.90;;;;;;5175628;27;20234;-51
2022/03/18 04:30:09;;;;;;;19.17;8.43;;;4.00;99.90;;;;;;5176086;27;20675;-51
2022/03/18 04:32:38;;;;;;;18.30;7.80;;;4.00;99.90;;;;;;5175375;27;20252;-51
2022/03/18 04:35:07;;;;;;;18.53;7.80;;;4.00;99.90;;;;;;5176169;27;20205;-52
2022/03/18 04:37:35;;;;;;;17.13;7.37;;;4.00;99.90;;;;;;5175391;27;20708;-51
2022/03/18 04:40:06;;;;;;;17.37;6.83;;;4.00;99.90;;;;;;5176170;27;20205;-51
2022/03/18 04:42:34;;;;;;;20.80;7.77;;;4.00;99.90;;;;;;5173453;27;20703;-51
2022/03/18 04:45:02;;;;;;;17.10;7.63;;;4.00;99.90;;;;;;5175323;27;20726;-51
2022/03/18 04:47:33;;;;;;;20.20;7.20;;;3.90;99.90;;;;;;5175038;27;20299;-51
2022/03/18 04:50:01;;;;;;;18.43;7.30;;;3.90;99.90;;;;;;5160772;27;20231;-51
2022/03/18 04:52:29;;;;;;;18.03;7.17;;;3.90;99.90;;;;;;5154429;27;20248;-51
2022/03/18 04:54:57;;;;;;;21.87;8.03;;;3.90;99.90;;;;;;5155184;27;20205;-51
2022/03/18 04:57:27;;;;;;;18.10;8.00;;;3.90;99.90;;;;;;5155176;27;20254;-51
2022/03/18 04:59:56;;;;;;;20.73;8.70;;;3.90;99.90;;;;;;5154678;27;20342;-51
2022/03/18 05:02:25;;;;;;;18.20;8.70;;;3.90;99.90;;;;;;5166857;27;20214;-50
2022/03/18 05:04:54;;;;;;;21.83;9.27;;;3.90;99.90;;;;;;5175633;27;20225;-51
2022/03/18 05:07:22;;;;;;;18.97;7.67;;;3.80;99.90;;;;;;5175627;27;20278;-50
2022/03/18 05:09:50;;;;;;;15.60;7.43;;;3.80;99.90;;;;;;5175842;27;20263;-51
2022/03/18 05:12:19;;;;;;;19.57;8.80;;;3.80;99.90;;;;;;5174973;27;20206;-51
2022/03/18 05:14:54;;;;;;;18.83;8.00;;;3.80;99.90;;;;;;5175741;27;20207;-51
2022/03/18 05:17:22;;;;;;;21.07;8.67;;;3.80;99.90;;;;;;5175233;27;20223;-51
2022/03/18 05:19:50;;;;;;;22.13;9.10;;;3.80;99.90;;;;;;5175192;27;20196;-51
2022/03/18 05:22:18;;;;;;;135.97;80.40;;;3.70;99.90;;;;;;5174776;27;20208;-51
2022/03/18 05:24:46;;;;;;;28.53;9.43;;;3.70;99.90;;;;;;5175035;27;20202;-51
2022/03/18 05:27:15;;;;;;;17.30;8.50;;;3.70;99.90;;;;;;5174515;27;20233;-51
2022/03/18 05:29:43;;;;;;;18.80;8.93;;;3.70;99.90;;;;;;5175137;27;20362;-51
2022/03/18 05:32:12;;;;;;;19.77;8.23;;;3.70;99.90;;;;;;5174455;27;20613;-52
2022/03/18 05:34:40;;;;;;;23.57;8.83;;;3.70;99.90;;;;;;5174740;27;20212;-52
2022/03/18 05:37:08;;;;;;;22.67;9.30;;;3.80;99.90;;;;;;5159745;27;20220;-51
2022/03/18 05:39:36;;;;;;;17.23;8.03;;;3.80;99.90;;;;;;5154245;27;20251;-51
2022/03/18 05:42:05;;;;;;;20.20;7.13;;;3.80;99.90;;;;;;5153725;27;20213;-51
2022/03/18 05:44:33;;;;;;;16.33;7.90;;;3.80;99.90;;;;;;5152184;27;20205;-50
2022/03/18 05:47:01;;;;;;;15.03;7.43;;;3.90;99.90;;;;;;5153900;27;20229;-50
2022/03/18 05:49:31;;;;;;;18.73;7.60;;;3.90;99.90;;;;;;5153625;27;20265;-51
2022/03/18 05:51:59;;;;;;;18.63;7.00;;;3.90;99.90;;;;;;5153440;27;20617;-51
2022/03/18 05:54:27;;;;;;;17.30;7.70;;;3.90;99.90;;;;;;5153898;27;20199;-51
2022/03/18 05:56:54;;;;;;;21.77;7.57;;;4.00;99.90;;;;;;5152825;27;20223;-51
2022/03/18 05:59:23;;;;;;;18.07;7.43;;;4.00;99.90;;;;;;5153394;27;20210;-51
2022/03/18 06:01:52;;;;;;;18.27;7.03;;;4.00;99.90;;;;;;5160791;27;20758;-50
2022/03/18 06:04:22;;;;;;;21.17;6.70;;;4.00;99.90;;;;;;5174372;27;20641;-51
2022/03/18 06:06:51;;;;;;;16.23;7.27;;;4.00;99.90;;;;;;5174264;27;20232;-51
2022/03/18 06:12:08;;;;;;;19.87;6.77;;;4.10;99.90;;;;;;5173724;27;20600;-51
2022/03/18 06:14:36;;;;;;;14.77;6.70;;;4.20;99.90;;;;;;5174341;27;20239;-52
2022/03/18 06:17:05;;;;;;;16.67;6.03;;;4.20;99.90;;;;;;5173969;27;20225;-51
2022/03/18 06:19:34;;;;;;;17.67;6.90;;;4.30;99.90;;;;;;5174157;27;20211;-51
2022/03/18 06:22:04;;;;;;;17.70;7.10;;;4.40;99.90;;;;;;5159309;27;20247;-50
2022/03/18 06:24:33;;;;;;;17.97;6.63;;;4.40;99.90;;;;;;5161174;27;20214;-51
2022/03/18 06:27:01;;;;;;;18.93;6.03;;;4.50;99.90;;;;;;5154458;27;20282;-50
2022/03/18 06:29:31;;;;;;;18.70;6.87;;;4.50;99.90;;;;;;5171918;27;20228;-50
2022/03/18 06:31:59;;;;;;;14.40;6.20;;;4.70;99.90;;;;;;5173167;27;20745;-51
2022/03/18 06:34:28;;;;;;;16.97;6.57;;;4.70;99.90;;;;;;5163099;27;20207;-51
2022/03/18 06:37:00;;;;;;;22.17;6.30;;;4.90;99.90;;;;;;5166098;27;20599;-51
2022/03/18 06:39:30;;;;;;;16.43;6.70;;;4.90;99.90;;;;;;5173535;27;20579;-51
2022/03/18 06:41:58;;;;;;;16.70;6.60;;;4.90;99.90;;;;;;5156815;27;20277;-51
2022/03/18 06:44:26;;;;;;;15.83;6.67;;;4.90;99.90;;;;;;5152759;27;20205;-51
2022/03/18 06:46:54;;;;;;;14.40;6.90;;;4.90;99.90;;;;;;5153632;27;20684;-51
2022/03/18 06:49:22;;;;;;;16.57;6.80;;;5.10;99.90;;;;;;5173177;27;20265;-50
2022/03/18 06:51:50;;;;;;;17.10;6.20;;;5.10;99.90;;;;;;5173092;27;20253;-51
2022/03/18 06:54:18;;;;;;;19.53;6.10;;;5.30;99.90;;;;;;5154812;27;20698;-51
2022/03/18 06:56:47;;;;;;;16.43;6.50;;;5.40;99.90;;;;;;5152894;27;20271;-51
2022/03/18 06:59:16;;;;;;;16.87;5.80;;;5.50;99.90;;;;;;5152415;27;20739;-50
2022/03/18 07:01:44;;;;;;;17.80;7.30;;;5.50;99.90;;;;;;5152527;27;20206;-51
2022/03/18 07:04:12;;;;;;;14.80;5.50;;;5.60;99.90;;;;;;5151878;27;20209;-51
2022/03/18 07:06:40;;;;;;;17.77;6.37;;;5.60;99.90;;;;;;5152515;27;20223;-51
2022/03/18 07:09:08;;;;;;;16.50;7.07;;;5.60;99.90;;;;;;5166491;27;20223;-51
2022/03/18 07:11:37;;;;;;;13.77;5.90;;;5.70;99.90;;;;;;5177453;27;20691;-51
2022/03/18 07:14:06;;;;;;;16.30;6.03;;;5.80;99.90;;;;;;5177074;27;20558;-51
2022/03/18 07:19:20;;;;;;;14.13;6.17;;;5.90;99.90;;;;;;5177358;27;20200;-51
2022/03/18 07:21:48;;;;;;;13.17;5.27;;;6.00;99.90;;;;;;5177245;27;20208;-51
2022/03/18 07:24:16;;;;;;;13.63;5.30;;;6.20;99.90;;;;;;5177577;27;20276;-51
2022/03/18 07:26:44;;;;;;;12.47;5.27;;;6.30;99.90;;;;;;5177113;27;20229;-50
2022/03/18 07:29:14;;;;;;;11.07;4.83;;;6.50;99.90;;;;;;5177662;27;20264;-51
2022/03/18 07:31:42;;;;;;;18.83;5.50;;;6.60;99.90;;;;;;5176612;27;20272;-51
2022/03/18 07:34:10;;;;;;;12.80;4.87;;;6.80;99.90;;;;;;5158047;27;20624;-51
2022/03/18 07:36:38;;;;;;;8.60;4.63;;;7.00;99.90;;;;;;5177096;27;20221;-51
2022/03/18 07:39:06;;;;;;;11.23;4.70;;;7.30;99.90;;;;;;5177097;27;20273;-51
2022/03/18 07:41:35;;;;;;;11.63;4.03;;;7.50;99.90;;;;;;5177191;27;20248;-51
2022/03/18 07:44:03;;;;;;;7.57;4.10;;;7.60;99.90;;;;;;5175806;27;20246;-51
2022/03/18 07:46:33;;;;;;;10.93;4.10;;;7.80;99.90;;;;;;5166008;27;20292;-51
2022/03/18 07:49:01;;;;;;;10.97;4.33;;;8.00;99.90;;;;;;5155558;27;20208;-51
2022/03/18 07:51:30;;;;;;;10.50;3.97;;;8.00;99.90;;;;;;5156246;27;20222;-51
2022/03/18 07:53:58;;;;;;;8.70;3.57;;;8.00;99.90;;;;;;5155403;27;20236;-51
2022/03/18 07:56:26;;;;;;;16.93;4.63;;;8.10;99.90;;;;;;5155779;27;20707;-51
2022/03/18 07:58:54;;;;;;;9.90;3.40;;;8.20;99.90;;;;;;5155665;27;20249;-51
2022/03/18 08:01:23;;;;;;;8.70;3.63;;;8.30;99.90;;;;;;5155932;27;20198;-51
2022/03/18 08:03:53;;;;;;;11.27;3.70;;;8.30;99.90;;;;;;5155061;27;20674;-51
2022/03/18 08:06:21;;;;;;;7.77;3.33;;;8.00;99.90;;;;;;5155793;27;20225;-51
2022/03/18 08:08:49;;;;;;;6.37;3.03;;;7.90;99.90;;;;;;5165640;27;20197;-51
2022/03/18 08:11:18;;;;;;;6.57;2.70;;;7.70;99.90;;;;;;5176063;27;20221;-51
2022/03/18 08:13:50;;;;;;;5.30;3.03;;;7.70;99.90;;;;;;5175727;27;20735;-51
2022/03/18 08:16:19;;;;;;;9.17;3.27;;;7.60;99.90;;;;;;5175923;27;20266;-52
2022/03/18 08:18:47;;;;;;;8.23;3.13;;;7.70;99.90;;;;;;5171850;27;20206;-51
2022/03/18 08:21:17;;;;;;;5.73;2.67;;;7.60;99.90;;;;;;5153104;27;20194;-51
2022/03/18 08:23:45;;;;;;;7.67;2.83;;;7.40;99.90;;;;;;5162647;27;20213;-50
2022/03/18 08:26:13;;;;;;;10.17;3.20;;;7.50;99.90;;;;;;5175764;27;20597;-51
2022/03/18 08:28:43;;;;;;;7.13;3.00;;;7.60;99.90;;;;;;5175723;27;20231;-50
2022/03/18 08:31:11;;;;;;;6.53;2.70;;;7.70;99.90;;;;;;5176029;27;20229;-51
2022/03/18 08:33:39;;;;;;;6.57;3.00;;;7.70;99.90;;;;;;5164814;27;20285;-51
2022/03/18 08:36:07;;;;;;;6.23;2.40;;;7.80;99.90;;;;;;5169342;27;20221;-50
2022/03/18 08:38:38;;;;;;;4.90;2.77;;;7.90;99.90;;;;;;5156761;27;20195;-51
2022/03/18 08:41:06;;;;;;;7.20;2.53;;;7.90;99.90;;;;;;5154807;27;20201;-52
2022/03/18 08:43:34;;;;;;;5.83;2.50;;;7.90;99.90;;;;;;5154114;27;20617;-51
2022/03/18 08:46:02;;;;;;;5.77;2.50;;;7.90;99.90;;;;;;5154407;27;20766;-51
2022/03/18 08:49:37;;;;;;;7.10;2.40;;;8.00;99.90;;;;;;5163671;27;20206;-51
2022/03/18 08:52:07;;;;;;;7.47;2.63;;;8.10;99.90;;;;;;5137273;27;20592;-51
2022/03/18 08:54:36;;;;;;;4.83;2.03;;;7.90;99.90;;;;;;5175443;27;20242;-51
2022/03/18 08:57:05;;;;;;;6.80;2.50;;;8.00;99.90;;;;;;5175384;27;20264;-51
2022/03/18 08:59:33;;;;;;;4.60;2.30;;;8.10;99.90;;;;;;5175334;27;20666;-51
2022/03/18 09:02:01;;;;;;;6.53;2.10;;;8.10;99.90;;;;;;5174907;27;20209;-52
2022/03/18 09:04:30;;;;;;;6.27;2.10;;;8.10;99.90;;;;;;5175082;27;20202;-51
2022/03/18 09:06:58;;;;;;;4.40;1.57;;;8.20;99.90;;;;;;5175084;27;20756;-51
2022/03/18 09:09:26;;;;;;;4.90;2.17;;;8.20;99.90;;;;;;5160328;27;20229;-50
2022/03/18 09:11:55;;;;;;;5.97;2.20;;;8.10;99.90;;;;;;5154445;27;20222;-49
2022/03/18 09:14:23;;;;;;;5.97;2.47;;;8.10;99.90;;;;;;5155307;27;20205;-52
2022/03/18 09:16:51;;;;;;;5.03;2.87;;;8.20;99.90;;;;;;5175075;27;20711;-52
2022/03/18 09:19:20;;;;;;;6.20;2.27;;;8.20;99.90;;;;;;5174881;27;20212;-51
2022/03/18 09:21:48;;;;;;;4.73;2.23;;;8.30;99.90;;;;;;5174753;27;20228;-52
2022/03/18 09:24:16;;;;;;;3.23;1.70;;;8.30;99.90;;;;;;5174837;27;20206;-52
2022/03/18 09:26:44;;;;;;;5.07;1.90;;;8.30;99.90;;;;;;5174949;27;20289;-52
2022/03/18 09:29:13;;;;;;;3.63;1.73;;;8.30;99.90;;;;;;5174796;27;20241;-51
2022/03/18 09:31:41;;;;;;;4.47;1.80;;;8.30;99.90;;;;;;5173705;27;20293;-52
2022/03/18 09:34:30;;;;;;;5.13;2.40;;;8.40;99.90;;;;;;5174482;27;20221;-52
2022/03/18 09:36:59;;;;;;;3.80;2.00;;;8.40;99.90;;;;;;5169767;27;20575;-52
2022/03/18 09:39:28;;;;;;;4.07;2.20;;;8.50;99.90;;;;;;5174399;27;20857;-51
2022/03/18 09:42:03;;;;;;;3.60;1.97;;;8.60;99.90;;;;;;5174446;27;20253;-52
2022/03/18 09:44:37;;;;;;;5.07;2.07;;;8.60;99.90;;;;;;5173963;27;20266;-52
2022/03/18 09:47:07;;;;;;;4.97;2.10;;;8.70;99.90;;;;;;5174360;27;20277;-52
2022/03/18 09:49:36;;;;;;;2.93;1.80;;;8.80;99.90;;;;;;5174344;27;20228;-52
2022/03/18 09:52:06;;;;;;;6.10;1.87;;;8.80;99.60;;;;;;5173799;27;20766;-52
2022/03/18 09:54:34;;;;;;;4.93;2.20;;;8.80;99.10;;;;;;5174062;27;20229;-52
2022/03/18 09:57:04;;;;;;;4.23;1.93;;;8.90;99.80;;;;;;5174047;27;20217;-52
2022/03/18 09:59:33;;;;;;;3.87;1.70;;;8.90;99.50;;;;;;5174467;27;20182;-52
2022/03/18 10:02:28;;;;;;;5.40;2.60;;;9.00;97.60;;;;;;5173504;27;20240;-52
2022/03/18 10:04:58;;;;;;;4.10;2.30;;;9.00;96.80;;;;;;5160497;27;20565;-51
2022/03/18 10:07:28;;;;;;;3.80;2.23;;;9.10;99.00;;;;;;5167924;27;20225;-52
2022/03/18 10:10:23;;;;;;;5.13;2.10;;;9.10;98.30;;;;;;5174325;27;20760;-51
2022/03/18 10:12:54;;;;;;;4.70;1.87;;;9.20;96.70;;;;;;5170980;27;20225;-52
2022/03/18 10:15:26;;;;;;;4.83;2.60;;;9.30;96.20;;;;;;5174164;27;20206;-52
2022/03/18 10:17:57;;;;;;;4.50;1.90;;;9.40;98.00;;;;;;5173981;27;20637;-52
2022/03/18 10:20:32;;;;;;;4.67;1.77;;;9.50;98.00;;;;;;5155688;27;20198;-52
2022/03/18 10:23:05;;;;;;;4.97;1.80;;;9.40;97.30;;;;;;5152257;27;20226;-51
2022/03/18 10:25:42;;;;;;;3.50;1.57;;;9.50;96.90;;;;;;5153336;27;20190;-51
2022/03/18 10:28:11;;;;;;;3.80;1.67;;;9.50;96.10;;;;;;5152845;27;20213;-51
2022/03/18 10:30:39;;;;;;;2.27;1.40;;;9.60;96.90;;;;;;5152903;27;20259;-52
2022/03/18 10:33:14;;;;;;;3.77;1.37;;;9.60;94.90;;;;;;5152090;27;20285;-51
2022/03/18 10:38:30;;;;;;;2.60;1.13;;;9.60;92.90;;;;;;5153041;27;20293;-51
2022/03/18 10:40:59;;;;;;;2.27;1.30;;;9.70;92.80;;;;;;5152948;27;20270;-51
2022/03/18 10:43:27;;;;;;;2.10;1.03;;;9.70;89.80;;;;;;5151289;27;20582;-51
2022/03/18 10:46:03;;;;;;;5.97;1.23;;;9.70;85.80;;;;;;5153012;27;20232;-52
2022/03/18 10:48:33;;;;;;;1.20;0.90;;;9.70;85.80;;;;;;5152795;27;20198;-52
2022/03/18 10:51:05;;;;;;;1.80;0.80;;;9.80;82.40;;;;;;5152388;27;20568;-52
2022/03/18 10:53:34;;;;;;;2.57;1.10;;;9.80;81.60;;;;;;5152119;27;20717;-52
2022/03/18 10:56:04;;;;;;;2.60;1.10;;;9.80;76.60;;;;;;5172275;27;20273;-51
2022/03/18 10:58:33;;;;;;;2.10;1.03;;;10.00;77.00;;;;;;5173717;27;20205;-50
2022/03/18 11:01:02;;;;;;;3.00;1.00;;;10.10;74.50;;;;;;5173158;27;20231;-52
2022/03/18 11:03:34;;;;;;;2.00;1.03;;;10.10;72.30;;;;;;5172598;27;20204;-51
2022/03/18 11:06:03;;;;;;;1.43;0.93;;;10.10;73.80;;;;;;5172888;27;21092;-50
2022/03/18 11:08:40;;;;;;;3.27;1.47;;;10.20;67.90;;;;;;5172890;27;20205;-51
2022/03/18 11:11:14;;;;;;;3.35;1.10;;;10.20;70.70;;;;;;5173339;27;20648;-52
2022/03/18 11:13:48;;;;;;;1.67;1.00;;;10.20;74.10;;;;;;5164823;27;20283;-51
2022/03/18 11:16:19;;;;;;;1.97;1.20;;;10.30;74.60;;;;;;5157409;27;20573;-51
2022/03/18 11:18:50;;;;;;;1.43;1.20;;;10.30;75.70;;;;;;5167362;27;20903;-51
2022/03/18 11:21:21;;;;;;;1.57;1.07;;;10.30;77.20;;;;;;5156985;27;20281;-52
2022/03/18 11:23:50;;;;;;;2.23;1.13;;;10.30;75.90;;;;;;5151967;27;20694;-51
2022/03/18 11:26:20;;;;;;;1.40;0.97;;;10.40;76.20;;;;;;5152632;27;20281;-51
2022/03/18 11:29:06;;;;;;;2.80;0.97;;;10.40;74.40;;;;;;5152361;27;20629;-51
2022/03/18 11:31:34;;;;;;;1.77;1.10;;;10.40;74.80;;;;;;5159817;27;20231;-51
2022/03/18 11:34:11;;;;;;;2.00;1.20;;;10.60;74.60;;;;;;5172759;27;20232;-51
2022/03/18 11:36:46;;;;;;;2.57;0.90;;;10.60;70.60;;;;;;5173412;27;20283;-51
2022/03/18 11:39:21;;;;;;;1.67;1.00;;;10.60;70.40;;;;;;5173091;27;20229;-51
2022/03/18 11:41:55;;;;;;;3.27;1.10;;;10.60;75.30;;;;;;5151071;27;20194;-51
2022/03/18 11:44:40;;;;;;;3.63;1.20;;;10.70;75.70;;;;;;5170386;27;20209;-51
2022/03/18 11:47:33;;;;;;;2.60;1.50;;;10.70;76.60;;;;;;5172833;27;20282;-51
2022/03/18 11:50:40;;;;;;;1.23;1.10;;;10.70;77.00;;;;;;5173106;27;20301;-51
2022/03/18 11:53:13;;;;;;;1.93;1.30;;;10.70;80.50;;;;;;5166344;27;20279;-51
2022/03/18 11:55:44;;;;;;;2.07;1.47;;;10.70;83.00;;;;;;5154281;27;20183;-51
2022/03/18 11:58:29;;;;;;;3.03;1.57;;;10.70;85.30;;;;;;5155965;27;20190;-50
2022/03/18 12:00:57;;;;;;;2.63;1.53;;;10.80;83.00;;;;;;5155309;27;20215;-51
2022/03/18 12:03:30;;;;;;;2.53;1.60;;;10.90;83.70;;;;;;5154706;27;20198;-51
2022/03/18 12:06:01;;;;;;;3.33;1.80;;;10.90;84.40;;;;;;5157606;27;20226;-51
2022/03/18 12:09:02;;;;;;;2.30;1.37;;;10.90;81.10;;;;;;5168696;27;20655;-51
2022/03/18 12:11:33;;;;;;;2.30;1.47;;;10.90;81.70;;;;;;5155108;27;20678;-51
2022/03/18 12:14:06;;;;;;;2.10;1.33;;;10.90;82.50;;;;;;5155006;27;20208;-51
2022/03/18 12:16:34;;;;;;;2.60;1.50;;;10.90;80.40;;;;;;5155548;27;20218;-51
2022/03/18 12:19:22;;;;;;;4.97;1.50;;;11.10;81.50;;;;;;5154971;27;20237;-51
2022/03/18 12:21:54;;;;;;;3.23;1.30;;;11.10;73.30;;;;;;5154741;27;20247;-51
2022/03/18 12:24:29;;;;;;;3.23;1.70;;;11.00;77.60;;;;;;5168462;27;20250;-51
2022/03/18 12:26:59;;;;;;;2.30;1.40;;;11.10;78.70;;;;;;5175875;27;20233;-51
2022/03/18 12:29:28;;;;;;;2.20;1.37;;;11.10;80.40;;;;;;5173960;27;20335;-51
2022/03/18 12:32:05;;;;;;;3.60;1.57;;;11.10;81.40;;;;;;5154296;27;20213;-51
2022/03/18 12:34:35;;;;;;;3.43;1.73;;;11.20;77.80;;;;;;5154350;27;20262;-51
2022/03/18 12:37:14;;;;;;;3.03;1.70;;;11.20;78.70;;;;;;5153249;27;20222;-51
2022/03/18 12:39:43;;;;;;;2.30;1.53;;;11.20;77.90;;;;;;5155213;27;20202;-51
2022/03/18 12:42:12;;;;;;;2.30;1.73;;;11.20;77.70;;;;;;5154418;27;20206;-51
2022/03/18 12:44:45;;;;;;;2.93;1.90;;;11.20;80.90;;;;;;5154297;27;20255;-51
2022/03/18 12:47:15;;;;;;;4.33;1.90;;;11.20;84.70;;;;;;5154841;27;20222;-51
2022/03/18 12:49:43;;;;;;;2.83;1.90;;;11.20;85.30;;;;;;5158011;27;20210;-51
2022/03/18 12:52:14;;;;;;;3.70;2.03;;;11.30;85.00;;;;;;5154080;27;20198;-51
2022/03/18 12:55:04;;;;;;;3.13;2.20;;;11.30;86.10;;;;;;5153924;27;20679;-51
2022/03/18 12:57:34;;;;;;;3.43;2.07;;;11.30;86.10;;;;;;5154125;27;20590;-51
2022/03/18 13:00:03;;;;;;;4.37;1.97;;;11.30;85.20;;;;;;5152193;27;20624;-51
2022/03/18 13:02:51;;;;;;;3.37;1.87;;;11.30;86.20;;;;;;5153080;27;20204;-51
2022/03/18 13:05:20;;;;;;;3.87;2.10;;;11.30;87.40;;;;;;5154025;27;20213;-51
2022/03/18 13:07:50;;;;;;;3.90;2.00;;;11.30;84.80;;;;;;5154068;27;20255;-51
2022/03/18 13:10:21;;;;;;;4.17;2.43;;;11.40;86.80;;;;;;5154091;27;20207;-52
2022/03/18 13:12:49;;;;;;;3.70;2.27;;;11.50;86.40;;;;;;5153626;27;20556;-51
2022/03/18 13:15:19;;;;;;;2.60;2.10;;;11.60;84.70;;;;;;5168061;27;20205;-51
2022/03/18 13:17:48;;;;;;;4.40;2.20;;;11.50;84.80;;;;;;5175157;27;20273;-51
2022/03/18 13:20:24;;;;;;;2.80;1.90;;;11.40;87.40;;;;;;5175440;27;20263;-50